THY355 UACC-LTFM
Flight info
| Callsign | THY355 |
|---|---|
| Flight time | N/A |
| Altitude | 32000 |
| Route | OSROL1B OSROL N996 TUSEP L988 BEKOR N55 TITIL N161 GASBI/N0455F320 N161 LEYLA N644 ADEKI DCT BADIR DCT LAGAS DCT NOLGA UG261 TBN UW71 CRM UM688 EKSUK UL852 TIVUG UM10 HAKAN UN644 GUMRU UT315 NUGBA |
| Aircraft | B738/M-SDE2E3FGHIRWXY/LB1 |
Departure
| Time | 2026-05-09 09:01 |
|---|---|
| Airport | Nursultan Nazarbayev International Airport (UACC) |
Arrival
| Time | N/A |
|---|---|
| Airport | İstanbul Airport (LTFM) |
| Time | Latitude | Longitude | Altitude | Speed | Heading |
|---|---|---|---|---|---|
| 2026-05-09 08:29 | 51.02780 | 71.46453 | 1163 ft | 0 kts | 316° |
| 2026-05-09 08:30 | 51.02779 | 71.46456 | 1163 ft | 0 kts | 315° |
| 2026-05-09 08:52 | 51.02775 | 71.46462 | 1162 ft | 4 kts | 315° |
| 2026-05-09 08:52 | 51.02755 | 71.46491 | 1162 ft | 4 kts | 318° |
| 2026-05-09 08:52 | 51.02735 | 71.46519 | 1159 ft | 4 kts | 324° |
| 2026-05-09 08:52 | 51.02712 | 71.46541 | 1161 ft | 4 kts | 341° |
| 2026-05-09 08:53 | 51.02690 | 71.46544 | 1161 ft | 3 kts | 39° |
| 2026-05-09 08:53 | 51.02688 | 71.46541 | 1163 ft | 0 kts | 45° |
| 2026-05-09 08:55 | 51.02688 | 71.46542 | 1163 ft | 0 kts | 45° |
| 2026-05-09 08:55 | 51.02694 | 71.46552 | 1162 ft | 2 kts | 44° |
| 2026-05-09 08:55 | 51.02708 | 71.46573 | 1163 ft | 4 kts | 45° |
| 2026-05-09 08:55 | 51.02729 | 71.46607 | 1163 ft | 5 kts | 45° |
| 2026-05-09 08:56 | 51.02758 | 71.46652 | 1163 ft | 6 kts | 44° |
| 2026-05-09 08:56 | 51.02793 | 71.46707 | 1163 ft | 8 kts | 44° |
| 2026-05-09 08:56 | 51.02824 | 71.46780 | 1162 ft | 8 kts | 88° |
| 2026-05-09 08:56 | 51.02792 | 71.46860 | 1163 ft | 9 kts | 134° |
| 2026-05-09 08:57 | 51.02771 | 71.46950 | 1163 ft | 9 kts | 71° |
| 2026-05-09 08:57 | 51.02817 | 71.47033 | 1163 ft | 11 kts | 44° |
| 2026-05-09 08:57 | 51.02873 | 71.47119 | 1163 ft | 12 kts | 44° |
| 2026-05-09 08:57 | 51.02933 | 71.47213 | 1163 ft | 13 kts | 44° |
| 2026-05-09 08:58 | 51.02998 | 71.47315 | 1163 ft | 14 kts | 44° |
| 2026-05-09 08:58 | 51.03068 | 71.47424 | 1163 ft | 15 kts | 44° |
| 2026-05-09 08:58 | 51.03142 | 71.47540 | 1163 ft | 15 kts | 44° |
| 2026-05-09 08:58 | 51.03221 | 71.47662 | 1163 ft | 16 kts | 44° |
| 2026-05-09 08:59 | 51.03304 | 71.47792 | 1163 ft | 17 kts | 44° |
| 2026-05-09 08:59 | 51.03389 | 71.47925 | 1163 ft | 16 kts | 46° |
| 2026-05-09 08:59 | 51.03430 | 71.48062 | 1163 ft | 14 kts | 88° |
| 2026-05-09 08:59 | 51.03432 | 71.48209 | 1163 ft | 13 kts | 90° |
| 2026-05-09 09:00 | 51.03393 | 71.48329 | 1162 ft | 11 kts | 139° |
| 2026-05-09 09:00 | 51.03335 | 71.48305 | 1162 ft | 9 kts | 224° |
| 2026-05-09 09:00 | 51.03326 | 71.48291 | 1163 ft | 0 kts | 224° |
| 2026-05-09 09:00 | 51.03212 | 71.48112 | 1164 ft | 57 kts | 224° |
| 2026-05-09 09:01 | 51.02770 | 71.47421 | 1164 ft | 120 kts | 224° |
| 2026-05-09 09:01 | 51.02043 | 71.46275 | 1174 ft | 172 kts | 226° |
| 2026-05-09 09:01 | 51.01167 | 71.44913 | 1815 ft | 176 kts | 224° |
| 2026-05-09 09:01 | 51.00294 | 71.43631 | 2831 ft | 167 kts | 224° |
| 2026-05-09 09:02 | 50.99425 | 71.42337 | 3379 ft | 180 kts | 225° |
| 2026-05-09 09:02 | 50.98459 | 71.40857 | 3485 ft | 205 kts | 225° |
| 2026-05-09 09:02 | 50.97409 | 71.39236 | 3932 ft | 212 kts | 226° |
| 2026-05-09 09:02 | 50.96308 | 71.37501 | 4134 ft | 238 kts | 229° |
| 2026-05-09 09:03 | 50.95504 | 71.35202 | 4693 ft | 244 kts | 254° |
| 2026-05-09 09:03 | 50.95358 | 71.32509 | 5410 ft | 250 kts | 272° |
| 2026-05-09 09:03 | 50.95701 | 71.29794 | 6206 ft | 252 kts | 279° |
| 2026-05-09 09:03 | 50.96131 | 71.27066 | 6812 ft | 258 kts | 279° |
| 2026-05-09 09:04 | 50.96572 | 71.24306 | 7573 ft | 257 kts | 279° |
| 2026-05-09 09:04 | 50.97010 | 71.21529 | 8197 ft | 263 kts | 279° |
| 2026-05-09 09:04 | 50.97447 | 71.18714 | 8915 ft | 263 kts | 278° |
| 2026-05-09 09:04 | 50.97885 | 71.15864 | 9523 ft | 269 kts | 278° |
| 2026-05-09 09:05 | 50.98327 | 71.12967 | 10192 ft | 270 kts | 278° |
| 2026-05-09 09:05 | 50.98773 | 71.10003 | 10531 ft | 286 kts | 278° |
| 2026-05-09 09:05 | 50.99248 | 71.06820 | 10686 ft | 306 kts | 279° |
| 2026-05-09 09:05 | 50.99754 | 71.03431 | 10836 ft | 325 kts | 279° |
| 2026-05-09 09:06 | 51.00318 | 70.99844 | 10976 ft | 344 kts | 281° |
| 2026-05-09 09:06 | 51.00962 | 70.96104 | 11227 ft | 358 kts | 281° |
| 2026-05-09 09:06 | 51.01629 | 70.92261 | 11719 ft | 363 kts | 281° |
| 2026-05-09 09:06 | 51.02217 | 70.88367 | 12318 ft | 361 kts | 273° |
| 2026-05-09 09:07 | 51.02070 | 70.84428 | 12939 ft | 357 kts | 256° |
| 2026-05-09 09:07 | 51.01321 | 70.80665 | 13537 ft | 358 kts | 247° |
| 2026-05-09 09:07 | 51.00374 | 70.76989 | 14036 ft | 361 kts | 246° |
| 2026-05-09 09:07 | 50.99384 | 70.73311 | 14591 ft | 363 kts | 246° |
| 2026-05-09 09:08 | 50.98386 | 70.69619 | 15144 ft | 365 kts | 246° |
| 2026-05-09 09:08 | 50.97391 | 70.65904 | 15671 ft | 367 kts | 246° |
| 2026-05-09 09:08 | 50.96409 | 70.62207 | 16162 ft | 370 kts | 246° |
| 2026-05-09 09:08 | 50.95413 | 70.58427 | 16643 ft | 373 kts | 246° |
| 2026-05-09 09:09 | 50.94410 | 70.54610 | 17139 ft | 376 kts | 246° |
| 2026-05-09 09:09 | 50.93404 | 70.50774 | 17649 ft | 378 kts | 246° |
| 2026-05-09 09:09 | 50.92379 | 70.46863 | 18139 ft | 380 kts | 246° |
| 2026-05-09 09:09 | 50.91373 | 70.43032 | 18546 ft | 383 kts | 246° |
| 2026-05-09 09:10 | 50.90332 | 70.39073 | 18967 ft | 385 kts | 246° |
| 2026-05-09 09:10 | 50.89298 | 70.35149 | 19406 ft | 387 kts | 246° |
| 2026-05-09 09:10 | 50.88272 | 70.31259 | 19825 ft | 389 kts | 246° |
| 2026-05-09 09:10 | 50.87226 | 70.27300 | 20240 ft | 391 kts | 246° |
| 2026-05-09 09:11 | 50.86173 | 70.23325 | 20629 ft | 393 kts | 246° |
| 2026-05-09 09:11 | 50.85112 | 70.19322 | 21016 ft | 395 kts | 246° |
| 2026-05-09 09:11 | 50.84045 | 70.15306 | 21400 ft | 397 kts | 246° |
| 2026-05-09 09:11 | 50.82971 | 70.11265 | 21779 ft | 399 kts | 246° |
| 2026-05-09 09:12 | 50.81889 | 70.07205 | 22154 ft | 401 kts | 246° |
| 2026-05-09 09:12 | 50.80801 | 70.03131 | 22509 ft | 403 kts | 247° |
| 2026-05-09 09:12 | 50.79906 | 69.98922 | 22858 ft | 406 kts | 255° |
| 2026-05-09 09:12 | 50.79282 | 69.94558 | 23217 ft | 409 kts | 256° |
| 2026-05-09 09:13 | 50.78707 | 69.90140 | 23474 ft | 413 kts | 257° |
| 2026-05-09 09:13 | 50.78131 | 69.85665 | 23626 ft | 418 kts | 257° |
| 2026-05-09 09:13 | 50.77541 | 69.81168 | 23945 ft | 418 kts | 257° |
| 2026-05-09 09:13 | 50.76937 | 69.76678 | 24303 ft | 418 kts | 256° |
| 2026-05-09 09:14 | 50.76320 | 69.72186 | 24614 ft | 418 kts | 256° |
| 2026-05-09 09:14 | 50.75692 | 69.67690 | 24865 ft | 420 kts | 256° |
| 2026-05-09 09:14 | 50.75055 | 69.63175 | 25122 ft | 422 kts | 256° |
| 2026-05-09 09:14 | 50.74412 | 69.58646 | 25397 ft | 423 kts | 256° |
| 2026-05-09 09:15 | 50.73765 | 69.54112 | 25673 ft | 424 kts | 256° |
| 2026-05-09 09:15 | 50.73114 | 69.49563 | 25936 ft | 425 kts | 256° |
| 2026-05-09 09:15 | 50.72460 | 69.45006 | 26163 ft | 427 kts | 256° |
| 2026-05-09 09:15 | 50.71800 | 69.40422 | 26418 ft | 428 kts | 256° |
| 2026-05-09 09:16 | 50.71141 | 69.35854 | 26815 ft | 426 kts | 256° |
| 2026-05-09 09:16 | 50.69831 | 69.26809 | 27648 ft | 421 kts | 256° |
| 2026-05-09 09:16 | 50.69177 | 69.22315 | 27969 ft | 420 kts | 256° |
| 2026-05-09 09:17 | 50.68522 | 69.17834 | 28291 ft | 419 kts | 256° |
| 2026-05-09 09:17 | 50.67867 | 69.13359 | 28660 ft | 418 kts | 256° |
| 2026-05-09 09:17 | 50.67213 | 69.08904 | 29044 ft | 416 kts | 256° |
| 2026-05-09 09:17 | 50.66561 | 69.04475 | 29398 ft | 414 kts | 256° |
| 2026-05-09 09:18 | 50.65907 | 69.00050 | 29697 ft | 415 kts | 256° |
| 2026-05-09 09:18 | 50.65259 | 68.95669 | 29864 ft | 417 kts | 256° |
| 2026-05-09 09:18 | 50.64598 | 68.91223 | 30120 ft | 416 kts | 256° |
| 2026-05-09 09:18 | 50.63940 | 68.86801 | 30458 ft | 413 kts | 256° |
| 2026-05-09 09:19 | 50.63284 | 68.82408 | 30777 ft | 411 kts | 256° |
| 2026-05-09 09:19 | 50.62628 | 68.78025 | 31021 ft | 411 kts | 256° |
| 2026-05-09 09:19 | 50.61970 | 68.73645 | 31198 ft | 412 kts | 256° |
| 2026-05-09 09:19 | 50.61307 | 68.69245 | 31382 ft | 413 kts | 256° |
| 2026-05-09 09:20 | 50.60644 | 68.64849 | 31602 ft | 412 kts | 255° |
| 2026-05-09 09:20 | 50.59980 | 68.60464 | 31758 ft | 413 kts | 255° |
| 2026-05-09 09:20 | 50.58642 | 68.51661 | 31747 ft | 412 kts | 255° |
| 2026-05-09 09:21 | 50.57307 | 68.42924 | 31750 ft | 409 kts | 255° |
| 2026-05-09 09:21 | 50.55976 | 68.34257 | 31749 ft | 407 kts | 255° |
| 2026-05-09 09:22 | 50.54644 | 68.25625 | 31752 ft | 405 kts | 255° |
| 2026-05-09 09:22 | 50.53310 | 68.17026 | 31751 ft | 405 kts | 255° |
| 2026-05-09 09:23 | 50.52131 | 68.08343 | 31756 ft | 408 kts | 259° |
| 2026-05-09 09:23 | 50.51213 | 67.99511 | 31755 ft | 411 kts | 259° |
| 2026-05-09 09:24 | 50.50305 | 67.90616 | 31756 ft | 414 kts | 259° |
| 2026-05-09 09:24 | 50.49374 | 67.81718 | 31756 ft | 417 kts | 259° |
| 2026-05-09 09:25 | 50.48407 | 67.72668 | 31752 ft | 418 kts | 259° |
| 2026-05-09 09:25 | 50.47433 | 67.63651 | 31746 ft | 419 kts | 259° |
| 2026-05-09 09:26 | 50.46457 | 67.54693 | 31751 ft | 419 kts | 259° |
| 2026-05-09 09:26 | 50.45469 | 67.45690 | 31749 ft | 418 kts | 259° |
| 2026-05-09 09:27 | 50.44475 | 67.36703 | 31750 ft | 417 kts | 258° |
| 2026-05-09 09:27 | 50.43477 | 67.27746 | 31749 ft | 416 kts | 258° |
| 2026-05-09 09:28 | 50.42475 | 67.18813 | 31749 ft | 415 kts | 258° |
| 2026-05-09 09:28 | 50.41468 | 67.09901 | 31758 ft | 415 kts | 258° |
| 2026-05-09 09:29 | 50.40627 | 67.02507 | 31751 ft | 414 kts | 258° |
| 2026-05-09 09:29 | 50.39609 | 66.93616 | 31753 ft | 414 kts | 258° |
| 2026-05-09 09:30 | 50.38584 | 66.84727 | 31753 ft | 415 kts | 258° |
| 2026-05-09 09:30 | 50.37551 | 66.75836 | 31758 ft | 415 kts | 258° |
| 2026-05-09 09:31 | 50.36509 | 66.66924 | 31752 ft | 416 kts | 258° |
| 2026-05-09 09:32 | 50.34931 | 66.53543 | 31755 ft | 417 kts | 258° |
| 2026-05-09 09:32 | 50.33868 | 66.44609 | 31767 ft | 418 kts | 258° |
| 2026-05-09 09:33 | 50.32795 | 66.35652 | 31765 ft | 419 kts | 258° |
| 2026-05-09 09:33 | 50.31711 | 66.26660 | 31757 ft | 422 kts | 257° |
| 2026-05-09 09:34 | 50.30613 | 66.17621 | 31768 ft | 424 kts | 257° |
| 2026-05-09 09:34 | 50.29504 | 66.08545 | 31766 ft | 426 kts | 257° |
| 2026-05-09 09:36 | 50.24959 | 65.72002 | 31768 ft | 428 kts | 257° |
| 2026-05-09 09:37 | 50.23805 | 65.62877 | 31764 ft | 428 kts | 257° |
| 2026-05-09 09:37 | 50.22646 | 65.53775 | 31767 ft | 427 kts | 257° |
| 2026-05-09 09:38 | 50.21491 | 65.44760 | 31766 ft | 426 kts | 257° |
| 2026-05-09 09:38 | 50.20323 | 65.35707 | 31763 ft | 425 kts | 257° |
| 2026-05-09 09:39 | 50.19150 | 65.26671 | 31765 ft | 425 kts | 257° |
| 2026-05-09 09:39 | 50.17970 | 65.17638 | 31761 ft | 425 kts | 256° |
| 2026-05-09 09:40 | 50.16783 | 65.08610 | 31764 ft | 425 kts | 256° |
| 2026-05-09 09:40 | 50.15588 | 64.99575 | 31758 ft | 426 kts | 256° |
| 2026-05-09 09:41 | 50.14384 | 64.90535 | 31768 ft | 426 kts | 256° |
| 2026-05-09 09:41 | 50.13173 | 64.81485 | 31757 ft | 426 kts | 256° |
| 2026-05-09 09:42 | 50.11956 | 64.72444 | 31759 ft | 427 kts | 256° |
| 2026-05-09 09:42 | 50.10659 | 64.63428 | 31761 ft | 426 kts | 254° |
| 2026-05-09 09:43 | 50.09237 | 64.54477 | 31761 ft | 426 kts | 254° |
| 2026-05-09 09:43 | 50.07814 | 64.45587 | 31760 ft | 426 kts | 254° |
| 2026-05-09 09:44 | 50.06389 | 64.36630 | 31757 ft | 426 kts | 254° |
| 2026-05-09 09:44 | 50.04967 | 64.27681 | 31753 ft | 426 kts | 254° |
| 2026-05-09 09:45 | 50.03540 | 64.18741 | 31752 ft | 426 kts | 254° |
| 2026-05-09 09:45 | 50.02106 | 64.09809 | 31757 ft | 426 kts | 254° |
| 2026-05-09 09:46 | 50.00666 | 64.00880 | 31749 ft | 426 kts | 255° |
| 2026-05-09 09:46 | 49.99215 | 63.91935 | 31757 ft | 427 kts | 255° |
| 2026-05-09 09:47 | 49.97756 | 63.82992 | 31758 ft | 427 kts | 255° |
| 2026-05-09 09:47 | 49.96286 | 63.74033 | 31759 ft | 428 kts | 255° |
| 2026-05-09 09:48 | 49.94809 | 63.65067 | 31768 ft | 429 kts | 255° |
| 2026-05-09 09:48 | 49.93318 | 63.56071 | 31767 ft | 431 kts | 255° |
| 2026-05-09 09:49 | 49.91820 | 63.47083 | 31771 ft | 435 kts | 255° |
| 2026-05-09 09:49 | 49.90295 | 63.37976 | 31775 ft | 437 kts | 255° |
| 2026-05-09 09:50 | 49.88754 | 63.28819 | 31767 ft | 440 kts | 255° |
| 2026-05-09 09:50 | 49.87199 | 63.19629 | 31754 ft | 441 kts | 255° |
| 2026-05-09 09:51 | 49.85634 | 63.10431 | 31765 ft | 441 kts | 255° |
| 2026-05-09 09:51 | 49.84063 | 63.01244 | 31759 ft | 441 kts | 255° |
| 2026-05-09 09:52 | 49.82488 | 62.92084 | 31760 ft | 439 kts | 255° |
| 2026-05-09 09:52 | 49.80912 | 62.82964 | 31762 ft | 438 kts | 255° |
| 2026-05-09 09:53 | 49.79334 | 62.73873 | 31751 ft | 437 kts | 256° |
| 2026-05-09 09:53 | 49.77755 | 62.64816 | 31764 ft | 436 kts | 256° |
| 2026-05-09 09:54 | 49.76146 | 62.55781 | 31768 ft | 436 kts | 252° |
| 2026-05-09 09:54 | 49.73415 | 62.47400 | 31768 ft | 440 kts | 235° |
| 2026-05-09 09:55 | 49.69588 | 62.40002 | 31766 ft | 442 kts | 232° |
| 2026-05-09 09:55 | 49.65681 | 62.32628 | 31771 ft | 446 kts | 233° |
| 2026-05-09 09:56 | 49.61748 | 62.25150 | 31779 ft | 450 kts | 233° |
| 2026-05-09 09:56 | 49.57833 | 62.17677 | 31780 ft | 451 kts | 233° |
| 2026-05-09 09:57 | 49.53915 | 62.10203 | 31762 ft | 443 kts | 233° |
| 2026-05-09 09:57 | 49.50065 | 62.02877 | 31767 ft | 440 kts | 233° |
| 2026-05-09 09:58 | 49.46206 | 61.95551 | 31789 ft | 442 kts | 233° |
| 2026-05-09 09:58 | 49.42326 | 61.88209 | 31788 ft | 444 kts | 233° |
| 2026-05-09 09:59 | 49.38425 | 61.80846 | 31788 ft | 445 kts | 233° |
| 2026-05-09 09:59 | 49.34503 | 61.73466 | 31784 ft | 447 kts | 233° |
| 2026-05-09 10:00 | 49.30567 | 61.66083 | 31786 ft | 448 kts | 233° |
| 2026-05-09 10:00 | 49.26625 | 61.58706 | 31788 ft | 448 kts | 233° |
| 2026-05-09 10:01 | 49.22677 | 61.51340 | 31791 ft | 447 kts | 233° |
| 2026-05-09 10:01 | 49.18731 | 61.43998 | 31787 ft | 446 kts | 232° |
| 2026-05-09 10:02 | 49.14788 | 61.36683 | 31784 ft | 445 kts | 233° |
| 2026-05-09 10:02 | 49.10849 | 61.29394 | 31791 ft | 445 kts | 232° |
| 2026-05-09 10:03 | 49.06907 | 61.22119 | 31788 ft | 445 kts | 232° |
| 2026-05-09 10:03 | 49.02995 | 61.14919 | 31794 ft | 443 kts | 232° |
| 2026-05-09 10:04 | 48.99058 | 61.07694 | 31784 ft | 442 kts | 232° |
| 2026-05-09 10:04 | 48.95131 | 61.00505 | 31801 ft | 441 kts | 232° |
| 2026-05-09 10:05 | 48.91205 | 60.93339 | 31803 ft | 441 kts | 232° |
| 2026-05-09 10:05 | 48.87277 | 60.86188 | 31810 ft | 441 kts | 232° |
| 2026-05-09 10:06 | 48.83345 | 60.79048 | 31796 ft | 441 kts | 232° |
| 2026-05-09 10:06 | 48.79409 | 60.71921 | 31809 ft | 441 kts | 232° |
| 2026-05-09 10:07 | 48.75463 | 60.64795 | 31814 ft | 441 kts | 232° |
| 2026-05-09 10:07 | 48.71506 | 60.57668 | 31814 ft | 442 kts | 232° |
| 2026-05-09 10:08 | 48.67542 | 60.50548 | 31817 ft | 443 kts | 232° |
| 2026-05-09 10:08 | 48.63564 | 60.43423 | 31816 ft | 444 kts | 232° |
| 2026-05-09 10:09 | 48.59575 | 60.36296 | 31827 ft | 444 kts | 232° |
| 2026-05-09 10:09 | 48.55577 | 60.29173 | 31835 ft | 444 kts | 231° |
| 2026-05-09 10:10 | 48.51582 | 60.22074 | 31815 ft | 443 kts | 231° |
| 2026-05-09 10:10 | 48.47591 | 60.15000 | 31829 ft | 442 kts | 231° |
| 2026-05-09 10:11 | 48.43605 | 60.07955 | 31832 ft | 441 kts | 231° |
| 2026-05-09 10:11 | 48.39622 | 60.00933 | 31840 ft | 440 kts | 231° |
| 2026-05-09 10:12 | 48.35640 | 59.93932 | 31842 ft | 440 kts | 231° |
| 2026-05-09 10:12 | 48.31661 | 59.86953 | 31824 ft | 440 kts | 231° |
| 2026-05-09 10:13 | 48.27674 | 59.79979 | 31841 ft | 440 kts | 231° |
| 2026-05-09 10:13 | 48.23674 | 59.73000 | 31844 ft | 442 kts | 231° |
| 2026-05-09 10:14 | 48.19680 | 59.66050 | 31849 ft | 444 kts | 231° |
| 2026-05-09 10:14 | 48.15640 | 59.59040 | 31847 ft | 445 kts | 231° |
| 2026-05-09 10:15 | 48.11585 | 59.52021 | 31851 ft | 446 kts | 231° |
| 2026-05-09 10:15 | 48.07519 | 59.45002 | 31855 ft | 447 kts | 231° |
| 2026-05-09 10:16 | 48.03443 | 59.37985 | 31858 ft | 447 kts | 231° |
| 2026-05-09 10:16 | 47.99370 | 59.30990 | 31861 ft | 446 kts | 231° |
| 2026-05-09 10:17 | 47.95303 | 59.24026 | 31856 ft | 444 kts | 231° |
| 2026-05-09 10:17 | 47.91243 | 59.17089 | 31873 ft | 444 kts | 231° |
| 2026-05-09 10:18 | 47.87180 | 59.10166 | 31868 ft | 443 kts | 230° |
| 2026-05-09 10:18 | 47.83116 | 59.03259 | 31873 ft | 443 kts | 230° |
| 2026-05-09 10:19 | 47.79051 | 58.96368 | 31865 ft | 443 kts | 230° |
| 2026-05-09 10:19 | 47.75671 | 58.90652 | 31876 ft | 443 kts | 230° |
| 2026-05-09 10:20 | 47.70925 | 58.82647 | 31880 ft | 445 kts | 230° |
| 2026-05-09 10:20 | 47.66829 | 58.75756 | 31877 ft | 446 kts | 230° |
| 2026-05-09 10:21 | 47.62720 | 58.68861 | 31879 ft | 447 kts | 230° |
| 2026-05-09 10:21 | 47.59295 | 58.63129 | 31884 ft | 447 kts | 230° |
| 2026-05-09 10:22 | 47.55167 | 58.56234 | 31883 ft | 447 kts | 230° |
| 2026-05-09 10:22 | 47.51044 | 58.49366 | 31880 ft | 445 kts | 230° |
| 2026-05-09 10:23 | 47.46930 | 58.42531 | 31880 ft | 444 kts | 230° |
| 2026-05-09 10:23 | 47.42832 | 58.35739 | 31886 ft | 442 kts | 230° |
| 2026-05-09 10:24 | 47.38743 | 58.28976 | 31892 ft | 441 kts | 230° |
| 2026-05-09 10:24 | 47.34659 | 58.22238 | 31901 ft | 440 kts | 230° |
| 2026-05-09 10:25 | 47.30571 | 58.15510 | 31884 ft | 440 kts | 230° |
| 2026-05-09 10:25 | 47.26448 | 58.08831 | 31906 ft | 441 kts | 229° |
| 2026-05-09 10:26 | 47.22283 | 58.02198 | 31906 ft | 442 kts | 229° |
| 2026-05-09 10:26 | 47.18106 | 57.95555 | 31912 ft | 443 kts | 229° |
| 2026-05-09 10:27 | 47.13917 | 57.88891 | 31900 ft | 445 kts | 229° |
| 2026-05-09 10:27 | 47.09710 | 57.82209 | 31908 ft | 446 kts | 229° |
| 2026-05-09 10:28 | 47.05493 | 57.75528 | 31908 ft | 446 kts | 229° |
| 2026-05-09 10:28 | 47.01272 | 57.68856 | 31902 ft | 446 kts | 229° |
| 2026-05-09 10:29 | 46.97053 | 57.62204 | 31902 ft | 445 kts | 229° |
| 2026-05-09 10:29 | 46.92839 | 57.55579 | 31921 ft | 444 kts | 228° |
| 2026-05-09 10:30 | 46.88628 | 57.48972 | 31915 ft | 444 kts | 228° |
| 2026-05-09 10:30 | 46.84415 | 57.42380 | 31922 ft | 443 kts | 228° |
| 2026-05-09 10:31 | 46.80204 | 57.35805 | 31923 ft | 443 kts | 228° |
| 2026-05-09 10:31 | 46.76015 | 57.29283 | 31921 ft | 443 kts | 228° |
| 2026-05-09 10:32 | 46.71791 | 57.22720 | 31924 ft | 444 kts | 228° |
| 2026-05-09 10:32 | 46.67550 | 57.16148 | 31920 ft | 445 kts | 228° |
| 2026-05-09 10:33 | 46.63301 | 57.09579 | 31924 ft | 446 kts | 228° |
| 2026-05-09 10:33 | 46.59038 | 57.03003 | 31925 ft | 447 kts | 228° |
| 2026-05-09 10:34 | 46.54765 | 56.96427 | 31928 ft | 448 kts | 228° |
| 2026-05-09 10:34 | 46.48330 | 56.86564 | 31932 ft | 449 kts | 226° |
| 2026-05-09 10:35 | 46.43684 | 56.80490 | 31937 ft | 450 kts | 221° |
| 2026-05-09 10:35 | 46.38875 | 56.74669 | 31934 ft | 450 kts | 221° |
| 2026-05-09 10:36 | 46.34076 | 56.68833 | 31941 ft | 450 kts | 221° |
| 2026-05-09 10:36 | 46.29336 | 56.63008 | 31943 ft | 450 kts | 221° |
| 2026-05-09 10:37 | 46.24573 | 56.57135 | 31934 ft | 450 kts | 221° |
| 2026-05-09 10:37 | 46.19811 | 56.51273 | 31946 ft | 449 kts | 221° |
| 2026-05-09 10:38 | 46.15059 | 56.45438 | 31953 ft | 448 kts | 221° |
| 2026-05-09 10:38 | 46.10309 | 56.39621 | 31944 ft | 447 kts | 221° |
| 2026-05-09 10:39 | 46.05568 | 56.33830 | 31941 ft | 446 kts | 221° |
| 2026-05-09 10:39 | 46.00835 | 56.28062 | 31950 ft | 445 kts | 221° |
| 2026-05-09 10:40 | 45.96106 | 56.22311 | 31949 ft | 445 kts | 221° |
| 2026-05-09 10:40 | 45.91376 | 56.16572 | 31953 ft | 445 kts | 221° |
| 2026-05-09 10:41 | 45.86644 | 56.10845 | 31954 ft | 445 kts | 221° |
| 2026-05-09 10:41 | 45.81899 | 56.05115 | 31956 ft | 446 kts | 221° |
| 2026-05-09 10:42 | 45.77155 | 55.99398 | 31960 ft | 446 kts | 221° |
| 2026-05-09 10:42 | 45.72404 | 55.93687 | 31955 ft | 446 kts | 221° |
| 2026-05-09 10:43 | 45.67651 | 55.87987 | 31957 ft | 446 kts | 221° |
| 2026-05-09 10:43 | 45.62898 | 55.82300 | 31967 ft | 445 kts | 221° |
| 2026-05-09 10:44 | 45.58144 | 55.76625 | 31967 ft | 445 kts | 221° |
| 2026-05-09 10:44 | 45.53391 | 55.70963 | 31969 ft | 445 kts | 221° |
| 2026-05-09 10:46 | 45.41542 | 55.56905 | 31977 ft | 444 kts | 221° |
| 2026-05-09 10:46 | 45.36786 | 55.51285 | 31978 ft | 444 kts | 221° |
| 2026-05-09 10:47 | 45.32032 | 55.45678 | 31978 ft | 444 kts | 221° |
| 2026-05-09 10:47 | 45.27277 | 55.40084 | 31986 ft | 444 kts | 221° |
| 2026-05-09 10:48 | 45.22517 | 55.34496 | 31985 ft | 444 kts | 221° |
| 2026-05-09 10:48 | 45.17752 | 55.28912 | 31994 ft | 444 kts | 221° |
| 2026-05-09 10:49 | 45.12982 | 55.23333 | 31987 ft | 445 kts | 220° |
| 2026-05-09 10:49 | 45.08208 | 55.17754 | 31993 ft | 445 kts | 222° |
| 2026-05-09 10:50 | 45.03605 | 55.11903 | 31989 ft | 445 kts | 224° |
| 2026-05-09 10:50 | 44.99073 | 55.05936 | 31992 ft | 446 kts | 224° |
| 2026-05-09 10:51 | 44.94521 | 54.99991 | 31994 ft | 446 kts | 223° |
| 2026-05-09 10:51 | 44.89944 | 54.94069 | 32000 ft | 447 kts | 223° |
| 2026-05-09 10:52 | 44.85384 | 54.88193 | 31998 ft | 447 kts | 223° |
| 2026-05-09 10:52 | 44.80794 | 54.82292 | 32000 ft | 447 kts | 223° |
| 2026-05-09 10:53 | 44.76199 | 54.76396 | 32003 ft | 447 kts | 223° |
| 2026-05-09 10:53 | 44.71599 | 54.70502 | 32005 ft | 447 kts | 223° |
| 2026-05-09 10:54 | 44.67010 | 54.64612 | 32006 ft | 447 kts | 225° |
| 2026-05-09 10:54 | 44.63171 | 54.57793 | 32014 ft | 445 kts | 236° |
| 2026-05-09 10:55 | 44.59671 | 54.50621 | 32009 ft | 445 kts | 236° |
| 2026-05-09 10:55 | 44.56152 | 54.43466 | 32013 ft | 445 kts | 236° |
| 2026-05-09 10:56 | 44.52606 | 54.36345 | 32015 ft | 446 kts | 235° |
| 2026-05-09 10:56 | 44.49045 | 54.29238 | 32018 ft | 446 kts | 236° |
| 2026-05-09 10:57 | 44.45478 | 54.22143 | 32025 ft | 446 kts | 235° |
| 2026-05-09 10:57 | 44.41905 | 54.15049 | 32029 ft | 446 kts | 235° |
| 2026-05-09 10:58 | 44.38327 | 54.07962 | 32017 ft | 446 kts | 235° |
| 2026-05-09 10:58 | 44.34742 | 54.00879 | 32025 ft | 446 kts | 235° |
| 2026-05-09 10:59 | 44.31153 | 53.93802 | 32026 ft | 447 kts | 235° |
| 2026-05-09 10:59 | 44.27553 | 53.86724 | 32028 ft | 448 kts | 236° |
| 2026-05-09 11:00 | 44.23945 | 53.79646 | 32036 ft | 448 kts | 235° |
| 2026-05-09 11:00 | 44.20330 | 53.72571 | 32033 ft | 448 kts | 236° |
| 2026-05-09 11:01 | 44.16709 | 53.65501 | 32037 ft | 448 kts | 235° |
| 2026-05-09 11:01 | 44.13106 | 53.58486 | 32033 ft | 448 kts | 235° |
| 2026-05-09 11:02 | 44.09477 | 53.51436 | 32035 ft | 448 kts | 235° |
| 2026-05-09 11:02 | 44.05841 | 53.44389 | 32034 ft | 448 kts | 235° |
| 2026-05-09 11:03 | 44.02198 | 53.37346 | 32047 ft | 449 kts | 235° |
| 2026-05-09 11:03 | 43.98542 | 53.30292 | 32038 ft | 451 kts | 234° |
| 2026-05-09 11:04 | 43.94873 | 53.23228 | 32033 ft | 452 kts | 235° |
| 2026-05-09 11:04 | 43.91182 | 53.16139 | 32047 ft | 454 kts | 234° |
| 2026-05-09 11:05 | 43.87470 | 53.09030 | 32049 ft | 456 kts | 235° |
| 2026-05-09 11:05 | 43.83740 | 53.01905 | 32048 ft | 458 kts | 235° |
| 2026-05-09 11:06 | 43.79991 | 52.94753 | 32050 ft | 459 kts | 234° |
| 2026-05-09 11:06 | 43.76230 | 52.87587 | 32060 ft | 461 kts | 234° |
| 2026-05-09 11:07 | 43.72482 | 52.80463 | 32055 ft | 462 kts | 235° |
| 2026-05-09 11:07 | 43.68696 | 52.73284 | 32054 ft | 462 kts | 234° |
| 2026-05-09 11:08 | 43.64904 | 52.66118 | 32072 ft | 462 kts | 234° |
| 2026-05-09 11:08 | 43.61094 | 52.58989 | 32062 ft | 461 kts | 234° |
| 2026-05-09 11:09 | 43.57283 | 52.51888 | 32062 ft | 460 kts | 234° |
| 2026-05-09 11:09 | 43.53476 | 52.44803 | 32063 ft | 459 kts | 233° |
| 2026-05-09 11:10 | 43.49675 | 52.37738 | 32073 ft | 459 kts | 234° |
| 2026-05-09 11:10 | 43.45872 | 52.30682 | 32076 ft | 459 kts | 234° |
| 2026-05-09 11:11 | 43.42067 | 52.23641 | 32077 ft | 459 kts | 234° |
| 2026-05-09 11:11 | 43.38865 | 52.17727 | 32085 ft | 459 kts | 234° |
| 2026-05-09 11:12 | 43.35039 | 52.10680 | 32083 ft | 461 kts | 234° |
| 2026-05-09 11:12 | 43.31198 | 52.03621 | 32087 ft | 462 kts | 234° |